Main page
METAR-TAF:

METAR-TAF

Airports :

Lamoni Municipal Airport

Lamoni, Iowa, United States

latitude: 40-37-50N, longitude: 093-54-03W, elevation: 1128 ft

Current weather observation

The report was made 47 minutes ago, at 20:53 UTC
Wind 10 mph from the North
Temperature 27°F
Humidity 33%
Pressure 30.71 in. Hg
Visibility: 10 miles
Clear sky

METAR: KLWD 202053Z AUTO 01009KT 10SM CLR M03/M17 A3071 RMK AO2 SLP419 T10331167 56021

Time: 15:40 (21:40 UTC)


TAF: missing

Weather observations and forecasts of more than 4000 airports (METAR and TAF reports).

The available stations are represented by yellow and red dots on the map.

Hover mouse over dot to see the name of the station.

Then click to see weather observations and forecasts.

To change the map : click on the green buttons with a black cross to zoom in, on the green button with a dash to zoom out, or on the green arrows for adjacent maps.


METAR-TAF: